Laupahoehoe, HI (96764)

1:03 AM HST on August 24, 2016 (GMT -1000)
Laupahoehoe | | Change Station
Active Advisory: Flash Flood Watch Active Notice: Record Report

Elev 925 ft 19.98 °N, 155.24 °W | Updated 13 seconds ago

Light Rain
Light Rain
71.2 °F
Feels Like 71.2 °F
N
0.0
Wind Variable Wind from East
Gusts 3.0 mph

Today
High -- | Low -- °F
--% Chance of Precip.
Yesterday
High -- | Low -- °F
Precip. -- in
Pressure 29.96 in
Visibility 7.0 miles
Clouds Mostly Cloudy 1200 ft
Mostly Cloudy 1800 ft
Overcast 5000 ft
Dew Point 69 °F
Humidity 94%
Rainfall 0.00 in
Snow Depth Not available.
6:03 AM 6:42 PM
Waning Gibbous, 58% visible
METAR PHTO 241053Z 25003KT 7SM -RA BKN012 BKN018 OVC050 24/23 A2997 RMK AO2 RAE03B52 SLP145 P0000 T02390233 $
Pressure 29.96 in
Visibility 7.0 miles
Clouds Mostly Cloudy 1200 ft
Mostly Cloudy 1800 ft
Overcast 5000 ft
Dew Point 69 °F
Humidity 94%
Rainfall 0.00 in
Snow Depth Not available.
6:03 AM 6:42 PM
Waning Gibbous, 58% visible
METAR PHTO 241053Z 25003KT 7SM -RA BKN012 BKN018 OVC050 24/23 A2997 RMK AO2 RAE03B52 SLP145 P0000 T02390233 $

10-Day Weather Forecast

Almanac

Astronomy

Aug. 24, 2016 Rise Set
Actual Time
Civil Twilight
Nautical Twilight
Astronomical Twilight
Moon
Length of Visible Light
Length of Day
Tomorrow will be .
, % of the Moon is Illuminated

Today's Extremes

State Highs State Lows

Community

WunderPhotos

Upload Photos

1,934,562 photos uploaded!

WunderBlog® & News

Nearby

Air Quality

  Air Quality AQ Index Pollutant
Not available.

Snow Depth

Station Depth Elevation

Earthquake Activity

City Distance Mag. Time & Date
Minimum magnitude displayed is 2.5.

Coastal Water Temperatures

Place Temperature

Stations

Nearby Weather Stations

Station Location Temp. Windchill Dew Point Humidity Wind Precip. Elev Updated Type
                   

Watches & Warnings

Flash Flood Watch
Issued: 11:46 PM HST Aug. 23, 2016 – National Weather Service

... Flash Flood Watch now in effect through Wednesday afternoon...

The Flash Flood Watch is now in effect for

* The Big Island.

* Through Wednesday afternoon

* deep tropical moisture will continue to produce heavy downpours
and a chance of thunderstorms through Wednesday. With the ground
already saturated in many areas from recent heavy rains... there
will be an elevated risk for flash flooding.

Precautionary/preparedness actions...

A Flash Flood Watch means that conditions may develop that lead
to flash flooding. Flash flooding is very dangerous.

You should monitor later forecasts and be prepared to take action
should flash flood warnings be issued.